createdAt,value
2022-09-15T00:01:12.173Z,74.66
2022-09-15T00:03:46.356Z,74.68
2022-09-15T00:06:14.916Z,74.93
2022-09-15T00:08:43.483Z,75.36
2022-09-15T00:11:15.162Z,74.85
2022-09-15T00:13:44.121Z,75.16
2022-09-15T00:16:15.235Z,75.66
2022-09-15T00:18:45.002Z,75.41
2022-09-15T00:21:17.993Z,75.47
2022-09-15T00:23:47.090Z,75.26
2022-09-15T00:26:17.206Z,75.20
2022-09-15T00:28:45.789Z,74.96
2022-09-15T00:31:15.332Z,74.98
2022-09-15T00:33:46.211Z,74.87
2022-09-15T00:36:14.730Z,75.68
2022-09-15T00:38:43.482Z,75.50
2022-09-15T00:41:12.796Z,75.30
2022-09-15T00:43:40.993Z,75.66
2022-09-15T00:46:09.729Z,75.59
2022-09-15T00:48:40.686Z,75.32
2022-09-15T00:51:10.528Z,75.32
2022-09-15T00:53:39.042Z,75.50
2022-09-15T00:56:09.739Z,75.21
2022-09-15T00:58:47.063Z,75.61
2022-09-15T01:01:16.403Z,75.67
2022-09-15T01:03:44.898Z,75.30
2022-09-15T01:06:18.719Z,75.59
2022-09-15T01:09:05.786Z,75.36
2022-09-15T01:11:35.010Z,75.44
2022-09-15T01:14:03.312Z,75.57
2022-09-15T01:16:50.511Z,75.71
2022-09-15T01:19:48.221Z,75.53
2022-09-15T01:22:35.341Z,75.48
2022-09-15T01:25:03.511Z,75.99
2022-09-15T01:27:54.986Z,75.58
2022-09-15T01:30:23.700Z,76.52
2022-09-15T01:33:05.029Z,76.12
2022-09-15T01:35:37.782Z,77.43
2022-09-15T01:38:14.100Z,77.33
2022-09-15T01:40:50.734Z,77.29
2022-09-15T01:43:21.362Z,77.03
2022-09-15T01:45:51.614Z,77.04
2022-09-15T01:48:21.638Z,76.85
2022-09-15T01:50:51.927Z,77.48
2022-09-15T01:53:21.005Z,77.09
2022-09-15T01:55:53.286Z,77.55
2022-09-15T01:58:21.783Z,77.45
2022-09-15T02:00:53.931Z,77.90
2022-09-15T02:03:35.323Z,77.43
2022-09-15T02:06:07.491Z,78.26
2022-09-15T02:08:45.367Z,77.84
2022-09-15T02:11:24.540Z,77.23
2022-09-15T02:14:03.677Z,77.51
2022-09-15T02:16:35.949Z,78.06
2022-09-15T02:19:19.961Z,77.24
2022-09-15T02:21:57.453Z,77.91
2022-09-15T02:24:40.539Z,77.98
2022-09-15T02:27:10.861Z,77.75
2022-09-15T02:29:40.097Z,76.84
2022-09-15T02:32:09.263Z,77.11
2022-09-15T02:34:39.253Z,77.68
2022-09-15T02:37:08.637Z,78.29
2022-09-15T02:39:40.183Z,77.82
2022-09-15T02:42:08.450Z,77.88
2022-09-15T02:44:37.067Z,77.76
2022-09-15T02:47:05.371Z,78.53
2022-09-15T02:49:33.610Z,78.36
2022-09-15T02:52:01.883Z,77.92
2022-09-15T02:54:30.126Z,78.77
2022-09-15T02:57:00.417Z,78.86
2022-09-15T02:59:48.557Z,78.61
2022-09-15T03:02:19.470Z,78.06
2022-09-15T03:04:48.685Z,78.34
2022-09-15T03:07:17.512Z,78.23
2022-09-15T03:09:45.783Z,78.28
2022-09-15T03:12:14.003Z,78.53
2022-09-15T03:14:42.224Z,78.82
2022-09-15T03:17:10.394Z,78.73
2022-09-15T03:19:38.597Z,79.38
2022-09-15T03:22:07.268Z,79.20
2022-09-15T03:24:35.703Z,79.05
2022-09-15T03:27:04.794Z,78.94
2022-09-15T03:29:33.013Z,79.42
2022-09-15T03:32:01.378Z,79.46
2022-09-15T03:34:29.865Z,79.40
2022-09-15T03:36:58.140Z,78.72
2022-09-15T03:39:26.429Z,78.67
2022-09-15T03:41:54.661Z,79.39
2022-09-15T03:44:23.677Z,78.84
2022-09-15T03:46:51.881Z,78.76
2022-09-15T03:49:20.108Z,78.82
2022-09-15T03:51:48.349Z,78.96
2022-09-15T03:54:16.853Z,79.40
2022-09-15T03:56:47.640Z,79.05
2022-09-15T03:59:18.951Z,79.61
2022-09-15T04:01:51.140Z,79.68
2022-09-15T04:04:19.500Z,79.65
2022-09-15T04:06:47.711Z,79.39
2022-09-15T04:09:16.795Z,79.90
2022-09-15T04:11:45.007Z,81.39
2022-09-15T04:14:13.225Z,81.52
2022-09-15T04:16:41.536Z,80.82
2022-09-15T04:19:10.000Z,79.85
2022-09-15T04:21:38.264Z,78.85
2022-09-15T04:24:06.642Z,77.41
2022-09-15T04:26:36.253Z,76.46
2022-09-15T04:29:05.496Z,75.56
2022-09-15T04:31:34.437Z,74.73
2022-09-15T04:34:02.742Z,73.91
2022-09-15T04:36:31.635Z,73.92
2022-09-15T04:38:59.869Z,73.57
2022-09-15T04:41:28.600Z,73.65
2022-09-15T04:43:56.812Z,73.63
2022-09-15T04:46:25.127Z,73.01
2022-09-15T04:48:54.146Z,72.32
2022-09-15T04:51:22.653Z,72.17
2022-09-15T04:53:52.146Z,72.02
2022-09-15T04:56:24.651Z,71.86
2022-09-15T04:58:54.077Z,71.60
2022-09-15T05:01:24.769Z,71.65
2022-09-15T05:03:53.457Z,72.40
2022-09-15T05:06:27.143Z,73.48
2022-09-15T05:08:56.994Z,74.40
2022-09-15T05:11:25.817Z,75.08
2022-09-15T05:13:54.746Z,75.24
2022-09-15T05:16:24.338Z,74.95
2022-09-15T05:18:54.496Z,74.88
2022-09-15T05:21:23.354Z,75.09
2022-09-15T05:23:52.370Z,75.25
2022-09-15T05:26:22.702Z,75.70
2022-09-15T05:28:50.961Z,75.69
2022-09-15T05:31:20.997Z,75.36
2022-09-15T05:33:50.538Z,75.28
2022-09-15T05:36:20.608Z,74.99
2022-09-15T05:38:48.787Z,74.94
2022-09-15T05:41:18.531Z,74.90
2022-09-15T05:43:47.563Z,74.60
2022-09-15T05:46:16.383Z,74.33
2022-09-15T05:48:46.094Z,74.36
2022-09-15T05:51:14.855Z,74.56
2022-09-15T05:53:43.143Z,74.59
2022-09-15T05:56:12.322Z,74.68
2022-09-15T05:58:41.484Z,75.05
2022-09-15T06:01:12.072Z,74.76
2022-09-15T06:03:40.967Z,74.81
2022-09-15T06:06:09.416Z,74.80
2022-09-15T06:08:42.446Z,75.13
2022-09-15T06:11:14.009Z,74.91
2022-09-15T06:13:42.452Z,74.87
2022-09-15T06:16:15.275Z,75.34
2022-09-15T06:18:43.660Z,75.59
2022-09-15T06:21:13.314Z,75.36
2022-09-15T06:23:42.064Z,74.78
2022-09-15T06:26:16.563Z,74.29
2022-09-15T06:28:49.594Z,74.08
2022-09-15T06:31:18.967Z,73.84
2022-09-15T06:33:48.687Z,73.74
2022-09-15T06:36:17.753Z,73.45
2022-09-15T06:38:46.912Z,73.28
2022-09-15T06:41:16.135Z,73.01
2022-09-15T06:43:44.487Z,72.66
2022-09-15T06:46:17.688Z,72.10
2022-09-15T06:48:48.330Z,71.92
2022-09-15T06:51:17.857Z,71.70
2022-09-15T06:53:47.273Z,70.78
2022-09-15T06:56:19.939Z,70.77
2022-09-15T06:58:51.143Z,70.70
2022-09-15T07:01:28.928Z,70.10
2022-09-15T07:03:58.598Z,69.72
2022-09-15T07:06:31.262Z,69.02
2022-09-15T07:09:00.692Z,68.31
2022-09-15T07:11:29.051Z,68.48
2022-09-15T07:13:57.855Z,68.43
2022-09-15T07:16:26.470Z,68.07
2022-09-15T07:18:56.036Z,68.31
2022-09-15T07:21:24.941Z,68.12
2022-09-15T07:23:53.334Z,68.11
2022-09-15T07:26:21.779Z,68.08
2022-09-15T07:28:51.841Z,68.13
2022-09-15T07:31:21.319Z,67.79
2022-09-15T07:33:50.678Z,67.94
2022-09-15T07:36:19.154Z,67.79
2022-09-15T07:38:48.434Z,67.58
2022-09-15T07:41:23.389Z,66.71
2022-09-15T07:43:52.837Z,66.11
2022-09-15T07:46:22.724Z,67.00
2022-09-15T07:48:53.353Z,67.10
2022-09-15T07:51:21.774Z,67.26
2022-09-15T07:53:50.085Z,67.08
2022-09-15T07:56:18.941Z,67.21
2022-09-15T07:58:48.134Z,67.00
2022-09-15T08:01:17.893Z,67.08
2022-09-15T08:03:51.545Z,66.60
2022-09-15T08:06:21.722Z,66.34
2022-09-15T08:08:54.000Z,66.60
2022-09-15T08:11:26.345Z,66.66
2022-09-15T08:13:54.639Z,67.00
2022-09-15T08:16:24.231Z,67.04
2022-09-15T08:18:53.286Z,67.04
2022-09-15T08:21:22.448Z,67.03
2022-09-15T08:23:56.322Z,66.96
2022-09-15T08:26:25.753Z,66.66
2022-09-15T08:28:54.224Z,66.60
2022-09-15T08:31:24.423Z,66.58
2022-09-15T08:33:54.148Z,66.56
2022-09-15T08:36:22.894Z,66.26
2022-09-15T08:38:51.171Z,65.88
2022-09-15T08:41:22.466Z,65.90
2022-09-15T08:44:01.472Z,66.29
2022-09-15T08:46:35.504Z,66.30
2022-09-15T08:49:07.210Z,66.31
2022-09-15T08:51:45.343Z,66.04
2022-09-15T08:54:18.846Z,66.08
2022-09-15T08:56:48.466Z,66.21
2022-09-15T08:59:17.756Z,66.23
2022-09-15T09:01:49.030Z,66.13
2022-09-15T09:04:26.601Z,65.97
2022-09-15T09:07:04.048Z,65.58
2022-09-15T09:09:33.417Z,66.14
2022-09-15T09:12:20.743Z,66.17
2022-09-15T09:14:55.193Z,66.23
2022-09-15T09:17:26.467Z,66.34
2022-09-15T09:20:15.456Z,66.29
2022-09-15T09:22:46.709Z,66.14
2022-09-15T09:25:27.169Z,66.42
2022-09-15T09:27:59.605Z,66.17
2022-09-15T09:30:31.425Z,66.14
2022-09-15T09:33:05.817Z,65.80
2022-09-15T09:35:38.305Z,65.85
2022-09-15T09:38:08.925Z,65.71
2022-09-15T09:40:37.461Z,65.44
2022-09-15T09:43:05.875Z,65.50
2022-09-15T09:45:34.484Z,65.43
2022-09-15T09:48:06.665Z,65.21
2022-09-15T09:50:39.915Z,65.20
2022-09-15T09:53:17.328Z,64.92
2022-09-15T09:55:46.133Z,65.00
2022-09-15T09:58:19.517Z,64.57
2022-09-15T10:00:48.197Z,64.16
2022-09-15T10:03:17.716Z,63.43
2022-09-15T10:06:00.562Z,62.94
2022-09-15T10:08:28.914Z,62.33
2022-09-15T10:11:03.047Z,61.75
2022-09-15T10:13:31.424Z,60.70
2022-09-15T10:16:01.217Z,60.76
2022-09-15T10:18:34.475Z,60.81
2022-09-15T10:21:04.998Z,60.47
2022-09-15T10:23:34.502Z,60.43
2022-09-15T10:26:15.358Z,59.72
2022-09-15T10:28:44.251Z,59.95
2022-09-15T10:31:16.382Z,59.45
2022-09-15T10:33:45.245Z,59.39
2022-09-15T10:36:21.954Z,57.86
2022-09-15T10:38:57.026Z,57.10
2022-09-15T10:41:32.421Z,58.29
2022-09-15T10:44:06.941Z,57.54
2022-09-15T10:46:53.924Z,57.11
2022-09-15T10:49:25.464Z,57.63
2022-09-15T10:51:53.627Z,56.41
2022-09-15T10:54:36.003Z,56.27
2022-09-15T10:57:19.504Z,55.90
2022-09-15T11:00:07.581Z,56.08
2022-09-15T11:02:55.404Z,56.70
2022-09-15T11:05:26.701Z,57.22
2022-09-15T11:07:55.584Z,57.43
2022-09-15T11:10:42.675Z,57.10
2022-09-15T11:13:10.926Z,57.57
2022-09-15T11:15:42.191Z,58.40
2022-09-15T11:18:10.706Z,57.98
2022-09-15T11:20:57.489Z,57.76
2022-09-15T11:23:28.732Z,56.44
2022-09-15T11:26:00.618Z,56.42
2022-09-15T11:28:40.377Z,56.28
2022-09-15T11:31:08.666Z,56.70
2022-09-15T11:33:46.016Z,57.01
2022-09-15T11:36:25.260Z,56.96
2022-09-15T11:38:53.471Z,54.71
2022-09-15T11:41:31.353Z,55.27
2022-09-15T11:43:59.554Z,56.41
2022-09-15T11:46:54.322Z,56.76
2022-09-15T11:49:25.356Z,57.04
2022-09-15T11:51:59.166Z,55.39
2022-09-15T11:54:35.220Z,53.90
2022-09-15T11:57:03.994Z,53.08
2022-09-15T11:59:39.314Z,50.71
2022-09-15T12:02:19.962Z,51.70
2022-09-15T12:05:08.619Z,50.40
2022-09-15T12:07:48.714Z,48.04
2022-09-15T12:10:30.664Z,47.36
2022-09-15T12:13:00.454Z,45.54
2022-09-15T12:15:29.608Z,43.85
2022-09-15T12:17:57.976Z,44.39
2022-09-15T12:20:38.328Z,44.15
2022-09-15T12:23:15.718Z,43.59
2022-09-15T12:26:01.700Z,43.02
2022-09-15T12:28:40.731Z,42.94
2022-09-15T12:31:13.766Z,43.26
2022-09-15T12:33:59.281Z,42.25
2022-09-15T12:36:30.568Z,42.25
2022-09-15T12:38:59.426Z,43.27
2022-09-15T12:41:28.396Z,41.80
2022-09-15T12:43:59.582Z,42.70
2022-09-15T12:46:28.250Z,41.35
2022-09-15T12:48:59.922Z,39.97
2022-09-15T12:51:29.407Z,38.58
2022-09-15T12:54:07.602Z,39.43
2022-09-15T12:56:36.109Z,39.48
2022-09-15T12:59:06.816Z,39.67
2022-09-15T13:01:44.672Z,40.98
2022-09-15T13:04:23.447Z,41.52
2022-09-15T13:07:30.422Z,40.16
2022-09-15T13:10:13.805Z,41.41
2022-09-15T13:12:47.662Z,41.80
2022-09-15T13:15:16.571Z,41.93
2022-09-15T13:17:46.681Z,42.68
2022-09-15T13:20:18.137Z,43.30
2022-09-15T13:22:50.426Z,43.91
2022-09-15T13:25:22.861Z,43.44
2022-09-15T13:27:55.276Z,43.92
2022-09-15T13:30:42.612Z,43.46
2022-09-15T13:33:20.111Z,42.83
2022-09-15T13:36:00.757Z,43.52
2022-09-15T13:38:56.749Z,41.60
2022-09-15T13:41:24.955Z,41.60
2022-09-15T13:43:53.206Z,41.66
2022-09-15T13:46:33.706Z,41.46
2022-09-15T13:49:11.220Z,43.50
2022-09-15T13:51:42.127Z,43.84
2022-09-15T13:54:19.325Z,43.97
2022-09-15T13:56:49.331Z,44.26
2022-09-15T13:59:19.115Z,44.46
2022-09-15T14:01:48.289Z,44.86
2022-09-15T14:04:18.126Z,47.12
2022-09-15T14:06:48.854Z,47.38
2022-09-15T14:09:19.839Z,47.83
2022-09-15T14:11:49.249Z,48.53
2022-09-15T14:14:39.444Z,48.54
2022-09-15T14:17:22.725Z,48.14
2022-09-15T14:19:55.315Z,48.22
2022-09-15T14:22:26.331Z,48.08
2022-09-15T14:24:56.674Z,48.01
2022-09-15T14:27:29.357Z,48.10
2022-09-15T14:30:02.034Z,48.34
2022-09-15T14:32:34.310Z,48.90
2022-09-15T14:35:06.683Z,48.93
2022-09-15T14:37:35.491Z,48.87
2022-09-15T14:40:17.623Z,48.89
2022-09-15T14:42:46.018Z,49.43
2022-09-15T14:48:07.407Z,49.66
2022-09-15T14:50:35.889Z,49.52
2022-09-15T14:53:04.316Z,49.71
2022-09-15T14:55:32.855Z,50.03
2022-09-15T14:58:11.930Z,50.08
2022-09-15T15:00:49.403Z,50.62
2022-09-15T15:03:36.476Z,50.69
2022-09-15T15:06:29.700Z,50.38
2022-09-15T15:09:00.997Z,50.46
2022-09-15T15:11:31.099Z,51.66
2022-09-15T15:13:59.764Z,51.95
2022-09-15T15:16:29.251Z,51.64
2022-09-15T15:18:58.306Z,51.84
2022-09-15T15:21:40.804Z,51.65
2022-09-15T15:24:20.297Z,51.64
2022-09-15T15:26:49.570Z,51.78
2022-09-15T15:29:36.861Z,52.59
2022-09-15T15:32:06.577Z,51.66
2022-09-15T15:34:34.971Z,51.84
2022-09-15T15:37:15.435Z,52.23
2022-09-15T15:39:46.029Z,52.12
2022-09-15T15:42:15.681Z,52.53
2022-09-15T15:45:02.903Z,52.76
2022-09-15T15:47:32.459Z,53.59
2022-09-15T15:50:13.158Z,54.09
2022-09-15T15:52:42.685Z,54.71
2022-09-15T15:55:15.833Z,54.64
2022-09-15T15:57:44.561Z,54.93
2022-09-15T16:00:20.884Z,55.51
2022-09-15T16:02:51.002Z,56.55
2022-09-15T16:05:25.705Z,56.65
2022-09-15T16:07:56.302Z,56.33
2022-09-15T16:10:27.787Z,55.35
2022-09-15T16:12:56.775Z,55.16
2022-09-15T16:15:24.973Z,55.14
2022-09-15T16:17:53.445Z,55.30
2022-09-15T16:20:23.663Z,55.18
2022-09-15T16:22:52.340Z,55.44
2022-09-15T16:25:42.178Z,55.54
2022-09-15T16:28:10.693Z,55.59
2022-09-15T16:30:38.940Z,55.90
2022-09-15T16:33:07.204Z,55.89
2022-09-15T16:35:37.578Z,56.19
2022-09-15T16:38:07.086Z,56.17
2022-09-15T16:40:37.418Z,56.44
2022-09-15T16:43:09.609Z,56.73
2022-09-15T16:45:40.610Z,56.78
2022-09-15T16:48:10.546Z,56.94
2022-09-15T16:50:40.146Z,57.25
2022-09-15T16:53:15.180Z,57.22
2022-09-15T16:55:50.667Z,57.29
2022-09-15T16:58:19.663Z,57.15
2022-09-15T17:00:49.402Z,57.19
2022-09-15T17:03:19.751Z,57.16
2022-09-15T17:05:50.413Z,57.10
2022-09-15T17:08:20.260Z,57.22
2022-09-15T17:10:48.682Z,57.28
2022-09-15T17:13:18.612Z,57.33
2022-09-15T17:15:47.284Z,57.36
2022-09-15T17:18:15.751Z,57.15
2022-09-15T17:20:44.865Z,57.71
2022-09-15T17:23:34.934Z,58.34
2022-09-15T17:26:05.066Z,58.96
2022-09-15T17:28:34.761Z,59.25
2022-09-15T17:31:05.259Z,59.91
2022-09-15T17:33:33.736Z,60.24
2022-09-15T17:36:02.100Z,60.55
2022-09-15T17:38:30.415Z,61.16
2022-09-15T17:40:58.926Z,61.79
2022-09-15T17:43:28.676Z,62.65
2022-09-15T17:45:56.991Z,62.92
2022-09-15T17:48:25.704Z,63.72
2022-09-15T17:50:53.982Z,64.26
2022-09-15T17:53:24.322Z,64.90
2022-09-15T17:55:54.650Z,65.13
2022-09-15T17:58:23.846Z,65.73
2022-09-15T18:00:52.978Z,66.07
2022-09-15T18:03:23.993Z,66.31
2022-09-15T18:05:52.374Z,66.49
2022-09-15T18:08:20.837Z,66.28
2022-09-15T18:10:49.149Z,66.25
2022-09-15T18:13:19.975Z,66.22
2022-09-15T18:15:49.230Z,66.28
2022-09-15T18:18:21.923Z,65.92
2022-09-15T18:20:51.643Z,65.77
2022-09-15T18:23:21.260Z,65.54
2022-09-15T18:25:50.416Z,65.69
2022-09-15T18:28:19.147Z,65.08
2022-09-15T18:30:48.485Z,64.84
2022-09-15T18:33:19.591Z,64.58
2022-09-15T18:35:48.983Z,64.44
2022-09-15T18:38:17.464Z,63.92
2022-09-15T18:40:47.193Z,63.95
2022-09-15T18:43:16.095Z,63.68
2022-09-15T18:45:44.564Z,63.65
2022-09-15T18:48:13.440Z,63.31
2022-09-15T18:50:42.353Z,63.17
2022-09-15T18:53:11.193Z,63.03
2022-09-15T18:55:42.667Z,63.05
2022-09-15T18:58:11.573Z,63.13
2022-09-15T19:00:39.793Z,63.13
2022-09-15T19:03:09.709Z,63.20
2022-09-15T19:05:38.778Z,63.22
2022-09-15T19:08:08.684Z,63.44
2022-09-15T19:10:39.917Z,63.44
2022-09-15T19:13:10.239Z,63.44
2022-09-15T19:15:41.892Z,63.25
2022-09-15T19:18:10.170Z,63.40
2022-09-15T19:20:38.493Z,63.47
2022-09-15T19:23:06.824Z,63.45
2022-09-15T19:25:35.342Z,64.03
2022-09-15T19:28:03.993Z,64.45
2022-09-15T19:30:32.389Z,65.26
2022-09-15T19:33:01.988Z,65.34
2022-09-15T19:35:30.260Z,66.11
2022-09-15T19:37:58.536Z,66.48
2022-09-15T19:40:26.952Z,66.02
2022-09-15T19:42:55.325Z,67.25
2022-09-15T19:45:23.612Z,67.50
2022-09-15T19:47:51.887Z,68.99
2022-09-15T19:50:20.176Z,69.47
2022-09-15T19:52:48.467Z,69.18
2022-09-15T19:55:18.354Z,68.63
2022-09-15T19:57:46.822Z,68.20
2022-09-15T20:00:15.383Z,68.65
2022-09-15T20:02:47.291Z,68.67
2022-09-15T20:05:15.466Z,69.15
2022-09-15T20:07:45.048Z,68.91
2022-09-15T20:10:13.281Z,69.26
2022-09-15T20:12:41.503Z,69.30
2022-09-15T20:15:10.592Z,69.10
2022-09-15T20:17:42.004Z,69.03
2022-09-15T20:20:11.988Z,69.30
2022-09-15T20:22:40.326Z,69.61
2022-09-15T20:25:08.545Z,69.33
2022-09-15T20:27:37.297Z,69.29
2022-09-15T20:30:06.343Z,69.09
2022-09-15T20:32:34.706Z,68.69
2022-09-15T20:35:03.262Z,68.93
2022-09-15T20:37:36.614Z,69.30
2022-09-15T20:40:08.471Z,69.06
2022-09-15T20:42:36.984Z,69.44
2022-09-15T20:45:05.631Z,68.94
2022-09-15T20:47:34.162Z,68.99
2022-09-15T20:50:02.443Z,69.63
2022-09-15T20:52:35.904Z,70.42
2022-09-15T20:55:06.533Z,71.24
2022-09-15T20:57:34.751Z,70.56
2022-09-15T21:00:05.306Z,70.50
2022-09-15T21:02:33.562Z,69.98
2022-09-15T21:05:01.885Z,71.09
2022-09-15T21:07:30.128Z,69.84
2022-09-15T21:09:59.121Z,70.42
2022-09-15T21:12:27.722Z,70.62
2022-09-15T21:14:58.163Z,70.78
2022-09-15T21:17:29.176Z,70.80
2022-09-15T21:19:57.319Z,70.96
2022-09-15T21:22:26.151Z,70.34
2022-09-15T21:24:54.453Z,70.00
2022-09-15T21:27:29.062Z,69.72
2022-09-15T21:29:57.312Z,69.75
2022-09-15T21:32:25.556Z,69.94
2022-09-15T21:34:56.166Z,70.17
2022-09-15T21:37:27.210Z,70.11
2022-09-15T21:39:56.115Z,70.81
2022-09-15T21:42:25.480Z,70.48
2022-09-15T21:44:54.688Z,70.38
2022-09-15T21:47:23.007Z,70.05
2022-09-15T21:49:52.034Z,70.54
2022-09-15T21:52:20.284Z,70.84
2022-09-15T21:54:48.501Z,71.63
2022-09-15T21:57:16.729Z,72.29
2022-09-15T21:59:45.255Z,72.13
2022-09-15T22:02:13.613Z,72.67
2022-09-15T22:04:41.856Z,73.40
2022-09-15T22:07:10.500Z,74.52
2022-09-15T22:09:39.007Z,75.11
2022-09-15T22:12:07.332Z,75.16
2022-09-15T22:14:35.536Z,75.05
2022-09-15T22:17:03.815Z,74.72
2022-09-15T22:19:32.054Z,74.33
2022-09-15T22:22:00.284Z,75.04
2022-09-15T22:24:28.518Z,75.17
2022-09-15T22:26:56.743Z,74.85
2022-09-15T22:29:24.974Z,75.55
2022-09-15T22:31:53.230Z,75.41
2022-09-15T22:34:21.552Z,74.80
2022-09-15T22:36:49.772Z,75.14
2022-09-15T22:39:18.061Z,75.39
2022-09-15T22:41:46.293Z,75.69
2022-09-15T22:44:19.327Z,76.00
2022-09-15T22:46:49.901Z,76.08
2022-09-15T22:49:18.321Z,75.91
2022-09-15T22:51:46.860Z,75.87
2022-09-15T22:54:15.225Z,75.60
2022-09-15T22:56:43.421Z,75.60
2022-09-15T22:59:11.795Z,76.13
2022-09-15T23:01:40.025Z,76.92
2022-09-15T23:04:08.319Z,76.76
2022-09-15T23:06:36.506Z,76.80
2022-09-15T23:09:06.165Z,76.55
2022-09-15T23:11:35.048Z,76.68
2022-09-15T23:14:03.289Z,76.99
2022-09-15T23:16:31.654Z,76.97
2022-09-15T23:19:00.115Z,76.85
2022-09-15T23:21:28.844Z,76.91
2022-09-15T23:23:57.603Z,77.14
2022-09-15T23:26:26.947Z,77.12
2022-09-15T23:28:55.635Z,76.62
2022-09-15T23:31:23.991Z,76.65
2022-09-15T23:33:52.231Z,76.36
2022-09-15T23:36:20.608Z,76.31
2022-09-15T23:38:49.196Z,76.24
2022-09-15T23:41:18.147Z,75.96
2022-09-15T23:43:46.759Z,75.39
2022-09-15T23:46:17.345Z,74.78
2022-09-15T23:48:45.672Z,74.20
2022-09-15T23:51:13.942Z,73.63
2022-09-15T23:53:42.393Z,73.16
2022-09-15T23:56:10.671Z,72.82
2022-09-15T23:58:39.154Z,72.15
